Time;durP1;ratioP1;P1;durP2;ratioP2;P2;SDS_P1;SDS_P2;PMS_P1;PMS_P2;Temp;Humidity;BMP_temperature;BMP_pressure;BME280_temperature;BME280_humidity;BME280_pressure;Samples;Min_cycle;Max_cycle;Signal;HPM_P1;HPM_P2
2023/12/01 00:02:27;;;;;;;29.10;14.20;;;;;;;0.35;72.35;97697.77;105215;1261;96525;-67
2023/12/01 00:04:55;;;;;;;32.40;17.00;;;;;;;0.36;72.34;97694.42;105262;1261;107177;-70
2023/12/01 00:07:23;;;;;;;26.10;12.90;;;;;;;0.36;72.44;97690.91;106180;1259;96647;-68
2023/12/01 00:09:52;;;;;;;32.00;14.90;;;;;;;0.36;72.35;97693.18;106801;1258;96547;-69
2023/12/01 00:12:20;;;;;;;28.40;13.30;;;;;;;0.36;72.52;97696.30;105420;1261;108310;-69
2023/12/01 00:14:48;;;;;;;29.20;13.50;;;;;;;0.38;72.40;97701.30;105399;1257;96543;-68
2023/12/01 00:17:16;;;;;;;29.00;12.70;;;;;;;0.38;72.55;97703.70;105342;1259;107595;-68
2023/12/01 00:19:44;;;;;;;28.90;13.90;;;;;;;0.40;72.42;97710.77;105240;1263;96797;-68
2023/12/01 00:22:12;;;;;;;30.40;14.60;;;;;;;0.40;72.28;97711.80;104960;1261;97933;-69
2023/12/01 00:24:40;;;;;;;29.20;14.10;;;;;;;0.40;72.33;97706.23;105000;1261;109731;-68
2023/12/01 00:27:08;;;;;;;26.80;12.80;;;;;;;0.38;72.25;97707.21;105554;1257;96520;-68
2023/12/01 00:29:36;;;;;;;31.00;13.50;;;;;;;0.38;72.46;97711.91;105948;1261;107639;-69
2023/12/01 00:32:04;;;;;;;27.60;13.60;;;;;;;0.37;72.52;97719.64;105387;1261;96596;-68
2023/12/01 00:34:32;;;;;;;31.20;16.30;;;;;;;0.36;72.70;97723.34;105816;1261;96612;-68
2023/12/01 00:37:00;;;;;;;31.00;15.20;;;;;;;0.37;72.69;97725.38;104719;1261;109889;-69
2023/12/01 00:39:28;;;;;;;29.80;15.00;;;;;;;0.35;72.57;97719.20;105780;1258;96623;-68
2023/12/01 00:41:56;;;;;;;33.70;16.00;;;;;;;0.34;72.66;97722.58;105074;1261;107354;-68
2023/12/01 00:44:24;;;;;;;32.50;16.90;;;;;;;0.36;72.66;97719.36;106391;1259;96719;-68
2023/12/01 00:46:52;;;;;;;34.50;18.10;;;;;;;0.38;72.74;97723.08;105769;1261;96688;-69
2023/12/01 00:49:20;;;;;;;34.50;18.70;;;;;;;0.39;72.91;97721.98;105048;1258;108588;-69
2023/12/01 00:51:48;;;;;;;34.40;17.60;;;;;;;0.35;72.69;97718.90;105624;1261;96598;-68
2023/12/01 00:54:16;;;;;;;32.80;17.30;;;;;;;0.34;72.87;97720.69;104847;1261;106423;-68
2023/12/01 00:56:43;;;;;;;37.50;20.50;;;;;;;0.35;72.71;97719.55;104975;1278;96962;-68
2023/12/01 00:59:13;;;;;;;42.20;23.10;;;;;;;0.36;72.79;97716.21;104743;1261;96618;-67
2023/12/01 01:01:41;;;;;;;46.20;24.40;;;;;;;0.36;72.78;97713.77;106061;1257;109770;-69
2023/12/01 01:04:10;;;;;;;47.40;24.30;;;;;;;0.35;72.78;97708.91;104918;1262;96628;-68
2023/12/01 01:06:40;;;;;;;37.50;20.80;;;;;;;0.36;72.83;97707.13;105325;1260;107165;-68
2023/12/01 01:09:09;;;;;;;39.10;19.40;;;;;;;0.37;72.87;97707.45;104982;1262;96605;-68
2023/12/01 01:11:36;;;;;;;33.40;16.10;;;;;;;0.37;72.93;97709.71;104997;1259;97538;-68
2023/12/01 01:14:04;;;;;;;33.30;17.30;;;;;;;0.36;72.91;97710.26;105451;1258;108285;-68
2023/12/01 01:16:32;;;;;;;33.50;17.40;;;;;;;0.37;73.01;97719.64;104909;1257;97946;-67
2023/12/01 01:19:00;;;;;;;35.60;16.60;;;;;;;0.35;72.72;97715.21;104973;1262;107735;-68
2023/12/01 01:21:28;;;;;;;34.50;16.60;;;;;;;0.34;73.11;97708.46;104743;1274;96703;-68
2023/12/01 01:23:56;;;;;;;34.10;16.90;;;;;;;0.36;73.03;97702.60;105152;1258;96618;-68
2023/12/01 01:26:24;;;;;;;30.80;15.00;;;;;;;0.36;72.89;97707.30;105294;1261;109862;-68
2023/12/01 01:28:51;;;;;;;32.90;14.10;;;;;;;0.37;72.94;97710.41;105521;1263;96638;-68
2023/12/01 01:31:19;;;;;;;31.90;15.70;;;;;;;0.37;72.90;97712.15;104903;1262;107694;-67
2023/12/01 01:33:47;;;;;;;33.00;16.30;;;;;;;0.38;72.95;97710.70;104877;1261;96697;-68
2023/12/01 01:36:15;;;;;;;31.90;17.20;;;;;;;0.38;73.00;97700.02;104859;1259;97511;-68
2023/12/01 01:38:43;;;;;;;32.80;16.80;;;;;;;0.38;73.16;97705.27;104896;1257;109543;-68
2023/12/01 01:41:10;;;;;;;31.10;15.40;;;;;;;0.36;73.09;97711.14;108179;1257;95580;-69
2023/12/01 01:43:38;;;;;;;32.40;17.10;;;;;;;0.37;73.01;97717.71;108224;1258;107669;-69
2023/12/01 01:46:09;;;;;;;35.20;19.40;;;;;;;0.39;73.17;97734.36;108267;1257;94291;-69
2023/12/01 01:48:38;;;;;;;39.50;20.90;;;;;;;0.40;73.02;97731.19;108231;1258;94539;-68
2023/12/01 01:51:08;;;;;;;40.60;21.80;;;;;;;0.42;73.15;97731.41;107528;1261;109992;-68
2023/12/01 01:53:37;;;;;;;38.80;21.40;;;;;;;0.43;73.05;97723.52;105032;1261;96767;-68
2023/12/01 01:56:06;;;;;;;42.80;22.90;;;;;;;0.44;73.07;97731.83;104954;1261;106671;-68
2023/12/01 01:58:34;;;;;;;39.00;22.50;;;;;;;0.44;73.12;97720.29;105365;1261;96700;-68
2023/12/01 02:01:02;;;;;;;43.90;23.10;;;;;;;0.46;73.13;97716.39;105239;1261;97990;-69
2023/12/01 02:03:30;;;;;;;40.30;22.40;;;;;;;0.44;73.09;97726.23;105184;1261;109869;-67
2023/12/01 02:05:58;;;;;;;42.10;23.30;;;;;;;0.45;73.28;97720.43;105158;1261;96628;-68
2023/12/01 02:08:27;;;;;;;42.80;24.10;;;;;;;0.47;73.30;97724.36;105132;1261;107616;-67
2023/12/01 02:10:57;;;;;;;40.60;22.40;;;;;;;0.46;73.30;97732.41;108235;1258;94250;-68
2023/12/01 02:13:25;;;;;;;46.40;24.10;;;;;;;0.43;73.05;97732.58;108268;1257;94421;-69
2023/12/01 02:15:53;;;;;;;38.20;20.90;;;;;;;0.40;73.36;97730.44;106773;1259;109984;-68
2023/12/01 02:18:31;;;;;;;41.40;23.80;;;;;;;0.41;73.24;97719.06;108246;1259;94535;-68
2023/12/01 02:21:00;;;;;;;41.00;23.00;;;;;;;0.43;73.28;97726.42;108167;1257;107725;-68
2023/12/01 02:23:28;;;;;;;42.50;24.60;;;;;;;0.45;73.44;97716.77;105233;1259;97920;-70
2023/12/01 02:25:56;;;;;;;42.20;22.00;;;;;;;0.44;73.23;97704.09;105023;1261;96653;-67
2023/12/01 02:28:24;;;;;;;40.40;21.90;;;;;;;0.41;73.32;97713.29;104848;1271;109876;-67
2023/12/01 02:30:54;;;;;;;40.60;23.80;;;;;;;0.43;73.37;97727.35;105161;1258;96666;-70
2023/12/01 02:33:23;;;;;;;40.30;22.20;;;;;;;0.44;73.41;97723.79;106577;1261;109387;-67
2023/12/01 02:35:52;;;;;;;41.40;23.70;;;;;;;0.45;73.35;97709.95;106715;1261;96558;-69
2023/12/01 02:38:20;;;;;;;42.60;23.90;;;;;;;0.46;73.46;97713.06;105142;1261;96650;-70
2023/12/01 02:40:51;;;;;;;42.80;26.30;;;;;;;0.46;73.41;97713.94;105266;1261;109887;-69
2023/12/01 02:43:20;;;;;;;46.70;25.00;;;;;;;0.44;73.21;97692.71;105192;1259;97538;-68
2023/12/01 02:45:49;;;;;;;44.90;25.00;;;;;;;0.42;73.35;97676.66;105095;1259;108788;-68
2023/12/01 02:48:17;;;;;;;40.60;23.10;;;;;;;0.39;73.43;97683.06;104982;1261;97027;-68
2023/12/01 02:50:45;;;;;;;40.60;22.20;;;;;;;0.36;73.38;97695.30;105411;1258;96594;-68
2023/12/01 02:53:15;;;;;;;40.90;23.20;;;;;;;0.33;73.50;97707.80;104922;1259;109815;-68
2023/12/01 02:55:45;;;;;;;39.90;22.90;;;;;;;0.32;73.58;97700.70;105021;1262;96645;-67
2023/12/01 02:58:14;;;;;;;40.90;24.10;;;;;;;0.32;73.65;97693.55;104959;1259;106628;-68
2023/12/01 03:00:42;;;;;;;43.70;23.60;;;;;;;0.32;73.72;97700.36;104906;1264;96624;-68
2023/12/01 03:03:10;;;;;;;44.30;25.20;;;;;;;0.30;73.42;97706.91;106981;1261;95003;-68
2023/12/01 03:05:38;;;;;;;39.40;21.80;;;;;;;0.28;73.54;97714.34;104733;1261;110682;-68
2023/12/01 03:08:07;;;;;;;45.30;24.70;;;;;;;0.26;73.42;97728.21;104768;1263;96752;-68
2023/12/01 03:10:35;;;;;;;50.10;26.80;;;;;;;0.22;73.54;97737.81;106091;1261;107927;-68
2023/12/01 03:13:03;;;;;;;47.80;26.20;;;;;;;0.21;73.60;97740.20;105623;1261;96530;-69
2023/12/01 03:15:31;;;;;;;49.10;27.50;;;;;;;0.19;73.48;97728.77;105052;1261;96612;-69
2023/12/01 03:17:59;;;;;;;53.00;27.00;;;;;;;0.18;73.71;97732.16;105086;1261;109898;-69
2023/12/01 03:20:27;;;;;;;50.40;27.70;;;;;;;0.14;73.48;97726.94;104942;1262;96637;-68
2023/12/01 03:22:55;;;;;;;52.20;30.50;;;;;;;0.12;73.76;97721.10;104926;1272;108817;-67
2023/12/01 03:25:23;;;;;;;56.60;33.60;;;;;;;0.13;73.63;97716.86;104920;1262;96605;-68
2023/12/01 03:27:51;;;;;;;55.60;31.40;;;;;;;0.13;73.64;97709.87;105607;1259;96528;-68
2023/12/01 03:30:19;;;;;;;54.40;32.00;;;;;;;0.12;73.67;97699.30;104684;1261;109461;-68
2023/12/01 03:32:49;;;;;;;51.60;29.80;;;;;;;0.09;73.56;97694.23;104814;1259;96615;-68
2023/12/01 03:35:20;;;;;;;53.00;30.00;;;;;;;0.09;73.60;97704.89;105364;1261;107096;-68
2023/12/01 03:37:50;;;;;;;55.10;31.90;;;;;;;0.07;73.78;97711.26;105122;1261;96666;-68
2023/12/01 03:40:18;;;;;;;52.30;28.00;;;;;;;0.04;73.69;97707.20;105037;1261;96553;-68
2023/12/01 03:42:47;;;;;;;50.70;27.10;;;;;;;0.01;73.64;97712.05;105374;1261;109462;-69
2023/12/01 03:45:16;;;;;;;54.20;29.00;;;;;;;-0.00;73.60;97712.50;105223;1261;96616;-69
2023/12/01 03:47:48;;;;;;;48.80;28.10;;;;;;;-0.02;73.61;97709.06;105070;1261;107648;-69
2023/12/01 03:50:18;;;;;;;53.00;28.30;;;;;;;-0.03;73.66;97709.99;105735;1261;96730;-69
2023/12/01 03:52:50;;;;;;;50.50;28.20;;;;;;;-0.03;73.80;97715.45;105482;1263;96560;-69
2023/12/01 03:55:18;;;;;;;51.60;29.10;;;;;;;-0.04;73.69;97714.24;105494;1262;109896;-69
2023/12/01 03:57:47;;;;;;;53.50;27.80;;;;;;;-0.05;73.69;97718.15;106518;1258;96619;-68
2023/12/01 04:00:18;;;;;;;45.10;25.60;;;;;;;-0.06;73.66;97724.67;105110;1261;106918;-69
2023/12/01 04:02:48;;;;;;;49.20;27.30;;;;;;;-0.07;73.63;97707.11;104916;1259;97540;-69
2023/12/01 04:05:18;;;;;;;49.30;27.90;;;;;;;-0.10;73.76;97697.50;105017;1259;97270;-68
2023/12/01 04:07:51;;;;;;;52.80;29.20;;;;;;;-0.11;73.76;97697.21;105350;1261;109590;-68
2023/12/01 04:10:24;;;;;;;56.90;32.70;;;;;;;-0.13;73.73;97712.80;105069;1264;97509;-68
2023/12/01 04:12:54;;;;;;;54.80;30.80;;;;;;;-0.15;73.77;97721.42;104899;1259;107694;-68
2023/12/01 04:15:26;;;;;;;55.70;31.10;;;;;;;-0.15;73.84;97723.50;105670;1261;96590;-68
2023/12/01 04:17:55;;;;;;;57.60;31.50;;;;;;;-0.13;73.84;97726.40;105112;1259;97421;-69
2023/12/01 04:20:27;;;;;;;52.80;29.20;;;;;;;-0.13;73.83;97724.45;106260;1261;109895;-68
2023/12/01 04:22:58;;;;;;;53.30;31.80;;;;;;;-0.12;74.00;97713.61;105172;1261;96567;-68
2023/12/01 04:25:27;;;;;;;56.90;30.50;;;;;;;-0.12;73.99;97711.18;105006;1262;107843;-68
2023/12/01 04:27:58;;;;;;;59.10;32.10;;;;;;;-0.11;73.96;97708.85;104923;1261;96708;-68
2023/12/01 04:30:26;;;;;;;57.60;32.10;;;;;;;-0.11;73.93;97714.95;105230;1258;96665;-68
2023/12/01 04:32:56;;;;;;;50.80;28.60;;;;;;;-0.14;73.89;97715.61;105758;1260;109893;-69
2023/12/01 04:35:28;;;;;;;64.90;36.40;;;;;;;-0.15;73.87;97726.63;104913;1271;96621;-68
2023/12/01 04:37:57;;;;;;;70.80;42.50;;;;;;;-0.15;74.00;97719.33;105092;1272;107692;-68
2023/12/01 04:40:29;;;;;;;75.00;44.10;;;;;;;-0.13;74.04;97713.52;105082;1271;97539;-69
2023/12/01 04:42:58;;;;;;;75.70;42.90;;;;;;;-0.13;73.85;97709.98;105078;1259;97948;-69
2023/12/01 04:45:31;;;;;;;76.70;45.60;;;;;;;-0.12;74.15;97711.89;105690;1263;109926;-68
2023/12/01 04:47:59;;;;;;;73.40;42.70;;;;;;;-0.15;74.08;97720.92;108043;1257;95059;-68
2023/12/01 04:50:29;;;;;;;78.80;45.60;;;;;;;-0.15;73.98;97713.77;105084;1261;107757;-68
2023/12/01 04:52:58;;;;;;;76.60;45.40;;;;;;;-0.14;74.06;97734.47;105194;1260;97418;-70
2023/12/01 04:55:28;;;;;;;78.80;43.60;;;;;;;-0.12;74.06;97733.48;107977;1263;94558;-71
2023/12/01 04:57:58;;;;;;;119.60;66.50;;;;;;;-0.10;74.16;97741.60;108020;1257;109917;-71
2023/12/01 05:00:27;;;;;;;143.60;73.40;;;;;;;-0.08;74.06;97735.55;105382;1274;96614;-70
2023/12/01 05:02:59;;;;;;;109.00;59.30;;;;;;;-0.06;74.09;97730.05;106017;1264;107225;-70
2023/12/01 05:05:29;;;;;;;116.00;62.70;;;;;;;-0.04;74.13;97730.83;108151;1258;94662;-71
2023/12/01 05:07:59;;;;;;;93.60;52.70;;;;;;;-0.03;74.09;97744.01;108184;1260;94515;-72
2023/12/01 05:10:29;;;;;;;79.40;46.30;;;;;;;-0.02;74.13;97750.41;104890;1259;110044;-68
2023/12/01 05:13:04;;;;;;;70.60;43.30;;;;;;;-0.03;74.08;97739.96;105479;1263;96977;-68
2023/12/01 05:15:34;;;;;;;78.80;49.00;;;;;;;-0.01;74.28;97732.03;104962;1263;107091;-70
2023/12/01 05:18:05;;;;;;;88.40;52.40;;;;;;;0.01;74.25;97748.35;106994;1263;96630;-70
2023/12/01 05:20:34;;;;;;;94.50;57.20;;;;;;;0.01;74.09;97755.66;105799;1263;96621;-70
2023/12/01 05:23:09;;;;;;;97.30;59.00;;;;;;;0.03;74.16;97745.09;105902;1262;109370;-70
2023/12/01 05:25:41;;;;;;;95.70;57.90;;;;;;;0.04;74.31;97727.08;105524;1262;96621;-70
2023/12/01 05:28:11;;;;;;;94.80;56.60;;;;;;;0.04;74.18;97722.20;104926;1264;107672;-70
2023/12/01 05:30:41;;;;;;;95.30;60.20;;;;;;;0.05;74.28;97727.56;108183;1258;94526;-70
2023/12/01 05:33:09;;;;;;;91.20;55.60;;;;;;;0.05;74.42;97727.20;105145;1263;97874;-70
2023/12/01 05:35:39;;;;;;;91.10;55.20;;;;;;;0.05;74.16;97718.99;105319;1264;109124;-71
2023/12/01 05:38:07;;;;;;;87.40;52.00;;;;;;;0.05;74.26;97729.64;105617;1263;97518;-70
2023/12/01 05:40:37;;;;;;;82.80;50.60;;;;;;;0.07;74.40;97738.09;105653;1263;107293;-70
2023/12/01 05:43:06;;;;;;;75.10;43.20;;;;;;;0.08;74.30;97739.44;107922;1258;96509;-70
2023/12/01 05:45:35;;;;;;;71.30;41.10;;;;;;;0.06;74.27;97739.34;105875;1260;96558;-71
2023/12/01 05:48:07;;;;;;;62.20;36.40;;;;;;;0.04;74.34;97749.20;105251;1263;109905;-70
2023/12/01 05:50:38;;;;;;;61.30;35.60;;;;;;;0.05;74.32;97754.59;105028;1263;97555;-69
2023/12/01 05:53:06;;;;;;;57.00;32.50;;;;;;;-0.00;74.12;97755.19;105421;1264;106887;-71
2023/12/01 05:55:35;;;;;;;55.60;34.80;;;;;;;-0.01;74.35;97759.74;105423;1263;96657;-70
2023/12/01 05:58:10;;;;;;;60.10;32.60;;;;;;;0.01;74.46;97761.79;105140;1263;97247;-71
2023/12/01 06:00:40;;;;;;;53.40;30.30;;;;;;;0.01;74.39;97764.71;105078;1264;109956;-73
2023/12/01 06:03:10;;;;;;;54.90;31.80;;;;;;;0.00;74.45;97767.37;105781;1261;96643;-77
2023/12/01 06:05:39;;;;;;;50.60;29.30;;;;;;;0.01;74.36;97761.06;105714;1263;107200;-73
2023/12/01 06:08:10;;;;;;;50.70;29.60;;;;;;;0.01;74.28;97772.89;108210;1257;94317;-74
2023/12/01 06:10:40;;;;;;;46.80;27.20;;;;;;;0.03;74.48;97781.52;108276;1257;94689;-74
2023/12/01 06:13:08;;;;;;;49.50;27.70;;;;;;;0.00;74.15;97784.63;108248;1257;109573;-78
2023/12/01 06:15:36;;;;;;;39.70;23.70;;;;;;;0.01;74.56;97798.67;108220;1258;95506;-73
2023/12/01 06:18:04;;;;;;;42.60;25.30;;;;;;;0.04;74.54;97796.45;105865;1271;107966;-73
2023/12/01 06:20:34;;;;;;;39.50;22.60;;;;;;;0.07;74.38;97801.20;105428;1263;96775;-71
2023/12/01 06:23:05;;;;;;;40.40;23.30;;;;;;;0.09;74.55;97801.61;105450;1261;96622;-73
2023/12/01 06:25:41;;;;;;;41.50;23.60;;;;;;;0.11;74.55;97791.42;105221;1263;110007;-74
2023/12/01 06:28:09;;;;;;;39.20;20.70;;;;;;;0.09;74.45;97801.23;105157;1262;96526;-72
2023/12/01 06:30:38;;;;;;;39.10;21.80;;;;;;;0.09;74.54;97800.41;105262;1261;107598;-72
2023/12/01 06:33:07;;;;;;;37.20;22.40;;;;;;;0.09;74.55;97801.80;105069;1263;96609;-72
2023/12/01 06:35:36;;;;;;;38.20;23.10;;;;;;;0.09;74.49;97795.69;105354;1257;96520;-71
2023/12/01 06:38:06;;;;;;;40.50;24.20;;;;;;;0.10;74.47;97799.48;105524;1261;109967;-73
2023/12/01 06:40:34;;;;;;;39.50;22.60;;;;;;;0.11;74.57;97800.81;105457;1261;96656;-73
2023/12/01 06:43:09;;;;;;;38.30;22.00;;;;;;;0.12;74.49;97810.90;106110;1259;107615;-71
2023/12/01 06:45:41;;;;;;;39.80;23.10;;;;;;;0.11;74.63;97800.61;106104;1261;96689;-74
2023/12/01 06:48:11;;;;;;;37.80;22.90;;;;;;;0.11;74.58;97798.21;105287;1260;96618;-73
2023/12/01 06:50:39;;;;;;;36.60;21.80;;;;;;;0.08;74.57;97801.64;106050;1261;109539;-77
2023/12/01 06:53:07;;;;;;;34.60;19.50;;;;;;;0.08;74.61;97811.41;104946;1263;96799;-77
2023/12/01 06:55:36;;;;;;;36.80;20.40;;;;;;;0.09;74.66;97818.15;105776;1262;106836;-75
2023/12/01 06:58:09;;;;;;;35.80;18.60;;;;;;;0.11;74.67;97816.15;105948;1262;96603;-80
2023/12/01 07:00:39;;;;;;;36.20;18.60;;;;;;;0.13;74.73;97819.20;104998;1263;96633;-75
2023/12/01 07:03:08;;;;;;;38.60;21.40;;;;;;;0.14;74.73;97803.98;105237;1261;109485;-72
2023/12/01 07:05:39;;;;;;;38.00;20.80;;;;;;;0.11;74.61;97800.63;105011;1262;96599;-72
2023/12/01 07:08:12;;;;;;;43.80;22.40;;;;;;;0.12;74.84;97799.16;105616;1261;108142;-73
2023/12/01 07:10:42;;;;;;;41.30;22.80;;;;;;;0.15;74.76;97800.77;104948;1264;96619;-70
2023/12/01 07:13:10;;;;;;;43.00;22.80;;;;;;;0.20;74.75;97815.40;106244;1261;98029;-71
2023/12/01 07:15:38;;;;;;;50.90;26.00;;;;;;;0.23;74.95;97809.81;104832;1263;109552;-77
2023/12/01 07:18:06;;;;;;;48.70;26.20;;;;;;;0.24;75.00;97814.95;104775;1264;96599;-76
2023/12/01 07:20:35;;;;;;;50.70;27.20;;;;;;;0.26;74.87;97829.48;105527;1262;107616;-75
2023/12/01 07:23:02;;;;;;;61.40;32.50;;;;;;;0.28;74.84;97838.85;107957;1257;94763;-75
2023/12/01 07:25:35;;;;;;;65.60;33.30;;;;;;;0.31;74.84;97828.58;105295;1263;96546;-77
2023/12/01 07:28:04;;;;;;;64.90;35.70;;;;;;;0.35;74.91;97818.11;106558;1258;109931;-73
2023/12/01 07:30:33;;;;;;;63.80;34.00;;;;;;;0.39;74.97;97822.45;105366;1262;96553;-73
2023/12/01 07:33:05;;;;;;;71.40;38.50;;;;;;;0.43;74.94;97828.66;105385;1263;107087;-74
2023/12/01 07:35:34;;;;;;;75.00;42.00;;;;;;;0.46;75.15;97836.90;105485;1272;96687;-72
2023/12/01 07:38:04;;;;;;;56.40;30.80;;;;;;;0.46;74.92;97841.27;105565;1261;96597;-73
2023/12/01 07:40:32;;;;;;;64.90;34.20;;;;;;;0.47;74.93;97843.46;105236;1262;109598;-74
2023/12/01 07:43:02;;;;;;;64.40;35.40;;;;;;;0.47;74.88;97843.29;105398;1257;96553;-75
2023/12/01 07:45:31;;;;;;;54.40;31.10;;;;;;;0.50;75.10;97829.52;105413;1264;107675;-73
2023/12/01 07:47:58;;;;;;;62.00;33.00;;;;;;;0.53;75.03;97828.86;105407;1270;96666;-71
2023/12/01 07:50:27;;;;;;;71.60;40.00;;;;;;;0.54;75.00;97828.82;105110;1263;97985;-72
2023/12/01 07:52:56;;;;;;;61.70;36.00;;;;;;;0.54;74.95;97834.39;105866;1262;110053;-72
2023/12/01 07:55:24;;;;;;;56.70;32.70;;;;;;;0.56;75.36;97840.92;105877;1262;96614;-72
2023/12/01 07:57:52;;;;;;;58.10;29.90;;;;;;;0.58;75.18;97848.70;106590;1261;107617;-73
2023/12/01 08:00:52;;;;;;;58.10;30.00;;;;;;;0.61;74.91;97864.59;105763;1261;97549;-81
2023/12/01 08:03:29;;;;;;;58.50;28.90;;;;;;;0.63;75.04;97856.95;106598;1263;96619;-78
2023/12/01 08:06:04;;;;;;;62.30;30.30;;;;;;;0.65;75.05;97859.98;104971;1264;109755;-80
2023/12/01 08:08:53;;;;;;;65.40;32.30;;;;;;;0.71;75.06;97868.05;102122;1297;636319;-80
2023/12/01 08:11:30;;;;;;;61.50;29.60;;;;;;;0.71;75.00;97858.13;105514;1271;2201950;-77
2023/12/01 08:14:03;;;;;;;62.60;29.90;;;;;;;0.70;74.91;97853.64;105153;1272;94974;-79
2023/12/01 08:18:01;;;;;;;;;;;;;;;;;;;;;
2023/12/01 08:21:31;;;;;;;61.00;28.30;;;;;;;0.78;75.34;97850.25;105444;1264;153985;-78
2023/12/01 08:24:04;;;;;;;62.40;30.50;;;;;;;0.82;74.97;97838.52;105602;1262;107196;-78
2023/12/01 08:26:33;;;;;;;67.80;30.20;;;;;;;0.87;75.37;97852.05;107931;1257;93782;-75
2023/12/01 08:29:07;;;;;;;63.40;30.80;;;;;;;0.85;74.64;97865.96;105367;1262;94360;-79
2023/12/01 08:31:38;;;;;;;68.20;32.50;;;;;;;0.82;75.12;97857.36;105411;1258;106963;-82
2023/12/01 08:34:44;;;;;;;;;;;;;;;;;;;;;
2023/12/01 08:37:58;;;;;;;75.10;36.30;;;;;;;0.85;74.84;97863.66;106165;1257;105839;-84
2023/12/01 08:41:10;;;;;;;71.00;32.90;;;;;;;0.80;75.06;97863.06;106381;1257;95278;-85
2023/12/01 08:43:42;;;;;;;68.30;32.10;;;;;;;0.79;74.99;97864.20;106360;1260;95215;-80
2023/12/01 09:41:02;;;;;;;68.20;35.10;;;;;;;1.62;75.06;97864.27;103147;1286;636641;-82
2023/12/01 09:43:32;;;;;;;72.80;37.00;;;;;;;1.61;75.07;97870.98;104801;1272;94329;-81
2023/12/01 09:46:19;;;;;;;78.60;39.40;;;;;;;1.65;75.18;97871.47;103498;1292;636950;-81
2023/12/01 09:48:47;;;;;;;70.60;36.70;;;;;;;1.64;75.23;97866.11;107703;1266;92636;-79
2023/12/01 09:51:18;;;;;;;66.30;38.40;;;;;;;1.68;75.31;97866.42;108008;1263;92553;-79
2023/12/01 09:53:46;;;;;;;64.10;34.80;;;;;;;1.69;75.30;97858.84;107915;1263;107325;-76
2023/12/01 09:56:19;;;;;;;64.00;32.30;;;;;;;1.71;75.40;97864.31;108061;1263;94783;-78
2023/12/01 09:58:50;;;;;;;67.40;35.40;;;;;;;1.77;75.33;97859.79;107860;1260;234279;-80
2023/12/01 10:01:33;;;;;;;61.90;31.90;;;;;;;1.81;75.19;97864.67;107673;1260;93842;-80
2023/12/01 10:04:02;;;;;;;67.10;33.30;;;;;;;1.79;75.07;97858.10;105550;1260;94281;-80
2023/12/01 10:06:32;;;;;;;71.20;34.40;;;;;;;1.80;75.18;97860.36;106123;1262;107430;-77
2023/12/01 10:09:02;;;;;;;69.30;36.50;;;;;;;1.82;75.24;97861.80;106030;1263;95102;-76
2023/12/01 10:11:32;;;;;;;66.40;33.90;;;;;;;1.84;75.26;97859.77;107388;1262;107679;-78
2023/12/01 10:14:06;;;;;;;60.40;33.10;;;;;;;1.88;75.55;97874.23;105743;1260;95291;-78
2023/12/01 10:16:36;;;;;;;60.40;31.00;;;;;;;1.92;75.50;97866.29;105424;1262;95693;-79
2023/12/01 10:19:05;;;;;;;55.30;29.80;;;;;;;1.95;75.63;97859.50;105502;1265;107264;-79
2023/12/01 10:21:49;;;;;;;62.70;31.70;;;;;;;1.92;75.23;97865.95;106428;1261;95484;-79
2023/12/01 10:24:21;;;;;;;60.40;31.10;;;;;;;1.90;75.39;97870.80;104960;1263;107258;-78
2023/12/01 10:26:51;;;;;;;54.10;27.50;;;;;;;1.89;75.08;97872.41;105124;1270;95383;-78
2023/12/01 10:29:37;;;;;;;56.90;30.20;;;;;;;1.90;75.18;97891.39;104838;1267;95264;-79
2023/12/01 10:32:11;;;;;;;56.40;29.60;;;;;;;1.91;75.22;97897.83;105871;1257;108276;-79
2023/12/01 10:34:54;;;;;;;58.50;30.20;;;;;;;1.93;75.37;97895.95;105141;1261;95879;-79
2023/12/01 10:37:25;;;;;;;49.40;27.40;;;;;;;1.96;75.53;97890.23;105124;1262;107384;-78
2023/12/01 10:40:00;;;;;;;52.80;28.00;;;;;;;1.99;75.65;97896.16;105240;1258;95767;-80
2023/12/01 10:42:30;;;;;;;56.70;30.10;;;;;;;2.02;75.29;97903.32;107296;1256;95260;-80
2023/12/01 10:45:00;;;;;;;60.70;32.40;;;;;;;2.06;75.52;97905.56;106407;1256;107197;-77
2023/12/01 10:47:32;;;;;;;54.50;30.30;;;;;;;2.06;75.40;97903.98;106520;1256;96187;-77
2023/12/01 10:50:02;;;;;;;60.90;32.10;;;;;;;2.03;75.33;97889.96;105619;1256;107678;-77
2023/12/01 10:52:40;;;;;;;63.40;33.10;;;;;;;2.01;75.22;97893.27;105463;1256;95252;-78
2023/12/01 10:55:08;;;;;;;63.90;34.20;;;;;;;2.05;75.13;97896.70;106047;1256;95242;-78
2023/12/01 10:57:39;;;;;;;52.90;26.10;;;;;;;2.09;75.46;97888.23;106018;1256;109060;-78
2023/12/01 11:03:57;;;;;;;55.90;30.60;;;;;;;2.21;75.29;97866.59;102703;1293;636941;-80
2023/12/01 11:07:00;;;;;;;62.80;34.60;;;;;;;2.23;75.26;97869.11;104734;1268;94386;-79
2023/12/01 11:10:15;;;;;;;77.30;37.20;;;;;;;2.21;75.10;97875.17;104939;1269;94312;-80
2023/12/01 11:13:16;;;;;;;72.90;37.00;;;;;;;2.07;75.23;97871.58;105331;1263;106959;-80
2023/12/01 11:16:14;;;;;;;69.20;35.80;;;;;;;2.03;75.16;97882.67;105501;1260;95405;-87
2023/12/01 11:18:48;;;;;;;62.30;32.40;;;;;;;2.02;75.19;97871.48;105837;1260;108006;-79
2023/12/01 11:21:19;;;;;;;71.40;34.70;;;;;;;2.08;75.47;97868.72;106637;1260;94382;-80
2023/12/01 11:24:31;;;;;;;78.20;39.90;;;;;;;2.07;75.11;97861.09;106019;1254;94247;-82
2023/12/01 11:27:07;;;;;;;75.10;38.00;;;;;;;2.04;75.09;97865.25;105524;1260;107148;-80
2023/12/01 11:29:37;;;;;;;71.40;36.00;;;;;;;2.01;75.19;97861.42;105007;1258;94236;-80
2023/12/01 11:32:06;;;;;;;69.90;35.90;;;;;;;2.01;75.00;97859.67;105777;1261;108362;-81
2023/12/01 11:34:33;;;;;;;65.60;34.40;;;;;;;2.01;75.21;97870.89;105474;1259;95358;-82
2023/12/01 11:37:05;;;;;;;73.40;38.10;;;;;;;2.00;75.19;97865.69;106825;1257;95188;-81
2023/12/01 11:39:32;;;;;;;77.40;38.00;;;;;;;2.03;75.33;97873.38;106343;1259;108516;-77
2023/12/01 11:42:01;;;;;;;72.60;38.40;;;;;;;2.06;75.30;97878.27;106140;1257;95455;-80
2023/12/01 11:44:34;;;;;;;68.50;37.90;;;;;;;2.10;75.45;97890.50;105423;1257;107517;-87
2023/12/01 11:47:09;;;;;;;62.30;34.00;;;;;;;2.04;75.02;97902.33;105130;1255;95384;-74
2023/12/01 11:49:44;;;;;;;102.10;71.30;;;;;;;1.99;75.08;97906.47;105537;1257;95217;-69
2023/12/01 11:52:18;;;;;;;69.50;40.10;;;;;;;1.99;75.36;97917.32;107223;1256;109207;-71
2023/12/01 11:54:47;;;;;;;71.50;39.90;;;;;;;2.03;75.21;97924.96;105694;1255;97000;-75
2023/12/01 11:57:17;;;;;;;77.10;41.30;;;;;;;2.06;75.21;97913.91;105200;1256;107607;-69
2023/12/01 11:59:45;;;;;;;82.20;44.50;;;;;;;2.06;75.14;97896.28;105670;1257;95240;-73
2023/12/01 12:02:14;;;;;;;78.20;41.00;;;;;;;2.07;75.06;97898.34;105775;1257;95253;-74
2023/12/01 12:04:42;;;;;;;76.50;41.90;;;;;;;2.04;75.10;97889.21;105531;1257;107676;-72
2023/12/01 12:07:09;;;;;;;83.70;44.80;;;;;;;2.05;74.93;97884.45;105729;1259;95284;-71
2023/12/01 12:09:36;;;;;;;77.30;41.10;;;;;;;2.06;75.19;97881.73;107005;1259;95182;-72
2023/12/01 12:12:09;;;;;;;82.30;43.60;;;;;;;2.09;75.14;97874.27;105528;1268;95563;-74
2023/12/01 12:14:37;;;;;;;81.80;43.60;;;;;;;2.11;75.21;97865.24;105288;1257;95941;-74
2023/12/01 12:17:04;;;;;;;81.70;43.30;;;;;;;2.09;75.19;97861.29;105344;1259;108282;-69
2023/12/01 12:19:44;;;;;;;85.80;43.10;;;;;;;2.08;75.13;97856.65;106523;1256;96228;-72
2023/12/01 12:22:19;;;;;;;85.10;42.70;;;;;;;2.04;75.08;97853.24;105384;1260;107421;-73
2023/12/01 12:24:46;;;;;;;79.60;40.40;;;;;;;1.97;74.77;97853.77;105364;1260;95355;-72
2023/12/01 12:27:13;;;;;;;72.90;37.80;;;;;;;1.94;74.80;97865.67;105368;1258;95262;-69
2023/12/01 12:29:40;;;;;;;76.50;39.80;;;;;;;1.95;75.10;97882.60;105980;1257;95265;-71
2023/12/01 12:32:06;;;;;;;74.60;37.50;;;;;;;1.96;74.97;97890.02;105386;1266;95259;-69
2023/12/01 12:34:33;;;;;;;75.10;39.30;;;;;;;1.92;75.10;97896.39;105684;1260;95242;-71